Home > Products > Valid Products > MTR

000
SAUS46 KMFR 180357
MTRSXT
METAR KSXT 180356Z AUTO 14008KT 2SM BR OVC060 02/02 A2991 RMK AO2
VIS 1 1/4V3 SLP144 T00170017





000
SAUS46 KMFR 180352
MTRSXT
SPECI KSXT 180351Z AUTO 14008KT 1 3/4SM BR SCT050 OVC070 02/02 A2991
RMK AO2





000
SAUS46 KMFR 180340
MTRSXT
SPECI KSXT 180338Z AUTO 14007KT 2SM BR OVC050 02/02 A2991 RMK AO2
VIS 1V5 T00220017





000
SAUS46 KMFR 180335
MTRSXT
SPECI KSXT 180334Z AUTO 13007KT 1 1/4SM BR OVC049 02/02 A2991 RMK
AO2 VIS 3/4V2 1/2 T00220017





000
SAUS46 KMFR 180316
MTRSXT
SPECI KSXT 180315Z AUTO 13006KT 1 3/4SM BR BKN049 OVC075 02/02 A2991
RMK AO2 T00170017





000
SAUS46 KMFR 180312
MTRSXT
SPECI KSXT 180310Z AUTO 13007KT 3SM BR BKN044 BKN070 OVC090 02/02
A2991 RMK AO2 T00170017





000
SAUS46 KMFR 180300
MTRSXT
SPECI KSXT 180259Z AUTO 13007KT 2SM BR SCT046 BKN070 OVC110 02/02
A2991 RMK AO2 T00170017





000
SAUS46 KMFR 180257
MTRSXT
METAR KSXT 180256Z AUTO 13007KT 1 1/4SM BR FEW050 BKN090 OVC110
02/02 A2991 RMK AO2 UPE04 SLP141 P0000 60002 T00170017 51012





000
SAUS46 KMFR 180244
MTRSXT
SPECI KSXT 180243Z AUTO 13007KT 3/4SM BR SCT080 OVC100 02/02 A2990
RMK AO2 UPE04 P0000 T00170017





000
SAUS46 KMFR 180238
MTRSXT
SPECI KSXT 180237Z AUTO 13006KT 1 3/4SM BR FEW048 BKN090 OVC110
02/02 A2990 RMK AO2 VIS 1V5 UPE04 P0000 T00170017





000
SAUS46 KMFR 180233
MTRMHS
SPECI KMHS 180229Z AUTO VRB03KT 7SM -RA FEW014 BKN028 OVC036 04/03
A2997 RMK AO2 RAB21 P0000 T00440028





000
SAUS46 KMFR 180215
MTRSXT
SPECI KSXT 180214Z AUTO 16009KT 3SM BR FEW015 OVC031 02/02 A2990 RMK
AO2 UPE04 P0000 T00170017





000
SAUS46 KMFR 180214
MTRSXT
SPECI KSXT 180212Z AUTO 16009KT 1 3/4SM BR FEW015 OVC027 02/02 A2990
RMK AO2 VIS 1/2V5 UPE04 P0000 T00170017





000
SAUS46 KMFR 180209
MTRSXT
SPECI KSXT 180208Z AUTO 17007KT 1/2SM FG VV019 02/02 A2990 RMK AO2
UPE04 P0000 T00170017





000
SAUS46 KMFR 180157
MTRSXT
METAR KSXT 180156Z AUTO 16007KT 1/4SM UP FG FEW005 BKN010 OVC015
02/02 A2990 RMK AO2 SLP138 P0002 T00220017





000
SAUS46 KMFR 180157
MTRSXT
METAR KSXT 180156Z AUTO 16007KT 1/4SM UP FG FEW005 BKN010 OVC015
02/02 A2990 RMK AO2 SLP138 P0002 T00220017





000
SAUS46 KMFR 180147
MTRSXT
SPECI KSXT 180146Z AUTO 17006KT 1/4SM UP FG FEW005 OVC014 02/02
A2989 RMK AO2 P0002 T00220017





000
SAUS46 KMFR 180147
MTRSXT
SPECI KSXT 180146Z AUTO 17006KT 1/4SM UP FG FEW005 OVC014 02/02
A2989 RMK AO2 P0002 T00220017





000
SAUS46 KMFR 180133
MTRSXT
SPECI KSXT 180132Z AUTO 18007KT 1/4SM UP FG VV005 02/02 A2989 RMK
AO2 P0002 T00220022





000
SAUS46 KMFR 180057
MTRSXT
METAR KSXT 180056Z AUTO 19007KT 1/4SM UP FG VV002 02/02 A2988 RMK
AO2 UPB53 SLP130 P0000 T00220022





000
SAUS46 KMFR 180000
MTRMHS
METAR KMHS 172356Z AUTO 00000KT 10SM -RA FEW013 OVC029 05/03 A2992
RMK AO2 SLP159 P0002 60004 T00500033 10056 20044 53004





000
SAUS46 KMFR 172358
MTRSXT
METAR KSXT 172356Z AUTO 18010KT 1/4SM FG BKN004 OVC026 02/02 A2987
RMK AO2 RAE2257UPB2257E07 SLP125 P0000 60006 T00220022 10033 20022
53004





000
SAUS46 KMFR 172322
MTRSXT
SPECI KSXT 172321Z AUTO 19009G15KT M1/4SM FG BKN003 BKN022 OVC029
02/02 A2986 RMK AO2 RAE2257UPB2257E07 P0000 T00220017





000
SAUS46 KMFR 172313
MTRSXT
SPECI KSXT 172312Z AUTO 18007KT M1/4SM FG BKN005 BKN022 OVC040 02/02
A2985 RMK AO2 RAE2257UPB2257E07 P0000 T00220022





000
SAUS46 KMFR 172257
MTRSXT
METAR KSXT 172256Z AUTO 19008KT M1/4SM -RA FG VV002 02/02 A2986 RMK
AO2 RAE2158B47UPB2158E02B39E47 SLP122 P0001 T00220022





000
SAUS46 KMFR 172234
MTRSXT
SPECI KSXT 172233Z AUTO 18008KT M1/4SM FG VV002 02/02 A2986 RMK AO2
RAE2158UPB2158E02 P0000 T00220022





000
SAUS46 KMFR 172200
MTRMHS
METAR KMHS 172156Z AUTO VRB03KT 10SM BKN008 OVC012 06/03 A2990 RMK
AO2 SLP147 T00560033





000
SAUS46 KMFR 172200
MTRMHS
METAR KMHS 172156Z AUTO VRB03KT 10SM BKN008 OVC012 06/03 A2990 RMK
AO2 SLP147 T00560033





000
SAUS46 KMFR 172157
MTRSXT
METAR KSXT 172156Z AUTO 17008KT M1/4SM -RA FG VV001 03/03 A2986 RMK
AO2 RAB48 SLP119 P0000 T00280028





000
SAUS46 KMFR 172157
MTRSXT
METAR KSXT 172156Z AUTO 17008KT M1/4SM -RA FG VV001 03/03 A2986 RMK
AO2 RAB48 SLP119 P0000 T00280028





000
SAUS46 KMFR 172100
MTRMHS
METAR KMHS 172056Z AUTO VRB03KT 10SM OVC080 05/03 A2991 RMK AO2
SLP155 60001 T00500033 57004





000
SAUS46 KMFR 172057
MTRSXT
METAR KSXT 172056Z AUTO 20006KT M1/4SM FG VV001 03/03 A2985 RMK AO2
SLP118 60005 T00280028 50005





000
SAUS46 KMFR 172000
MTRMHS
METAR KMHS 171956Z AUTO VRB03KT 10SM FEW040 OVC060 05/03 A2992 RMK
AO2 RAE26 SLP156 P0000 T00500028





000
SAUS46 KMFR 171957
MTRSXT
METAR KSXT 171956Z AUTO 21008KT 170V230 M1/4SM FG VV001 03/03 A2985
RMK AO2 SNE47 SLP121 P0001 T00280028





000
SAUS46 KMFR 171857
MTRSXT
METAR KSXT 171856Z AUTO 21012G21KT M1/4SM -SN FG VV001 03/03 A2984
RMK AO2 SNB1759 SLP113 P0004 T00280028





000
SAUS46 KMFR 171852
MTRSXT
SPECI KSXT 171851Z AUTO 21013G19KT M1/4SM -SN FG VV001 03/03 A2984
RMK AO2 SNB1759 P0003





000
SAUS46 KMFR 171800
MTRMHS
METAR KMHS 171756Z AUTO VRB03KT 9SM FEW016 SCT021 OVC030 04/02 A2993
RMK AO2 SLP160 60004 T00440022 10044 20022 51014





000
SAUS46 KMFR 171757
MTRSXT
METAR KSXT 171756Z AUTO 18011KT 1/4SM FG VV002 03/03 A2981 RMK AO2
RAE1657UPB1657E14B24E35 SLP104 P0001 60004 T00280028 10033 20017
53017





000
SAUS46 KMFR 171750
MTRSXT
SPECI KSXT 171749Z AUTO 18010KT 1 1/4SM BR OVC003 03/03 A2981 RMK
AO2 RAE1657UPB1657E14B24E35 P0001 T00280028





000
SAUS46 KMFR 171745
MTRSXT
SPECI KSXT 171744Z AUTO 18010KT 2SM BR OVC003 03/03 A2981 RMK AO2
VIS 3/4V5 RAE1657UPB1657E14B24E35 P0001 T00280028





000
SAUS46 KMFR 171743
MTRSXT
SPECI KSXT 171742Z AUTO 18012KT 1SM BR OVC003 03/03 A2981 RMK AO2
VIS 1/4V5 RAE1657UPB1657E14B24E35 P0001 T00280028





000
SAUS46 KMFR 171735
MTRSXT
SPECI KSXT 171734Z AUTO 18011KT 1/4SM UP FG OVC003 03/03 A2980 RMK
AO2 RAE1657UPB1657E14B24 P0001 T00280028





000
SAUS46 KMFR 171726
MTRSXT
SPECI KSXT 171725Z AUTO 18011G17KT 3/4SM UP BR OVC003 03/03 A2980
RMK AO2 RAE1657UPB1657E14B24 P0001 T00280028





000
SAUS46 KMFR 171719
MTRSXT
SPECI KSXT 171717Z AUTO 17012G18KT 2 1/2SM BR OVC003 03/03 A2979 RMK
AO2 VIS 3/4V5 RAE1657UPB1657E14 P0001 T00280028





000
SAUS46 KMFR 171712
MTRSXT
SPECI KSXT 171710Z AUTO 17012KT 1/2SM UP FG OVC003 03/03 A2979 RMK
AO2 VIS 1/4V2 1/2 RAE1657UPB1657 P0001 T00280028





000
SAUS46 KMFR 171700
MTRMHS
METAR KMHS 171656Z AUTO 00000KT 10SM SCT023 OVC033 04/02 A2991 RMK
AO2 RAB04E16B36E47 SLP155 P0000 T00390022





000
SAUS46 KMFR 171657
MTRSXT
METAR KSXT 171656Z AUTO 18014KT 1/4SM -RA FG OVC003 03/03 A2978 RMK
AO2 UPB42E46RAB46 SLP092 P0000 T00280028





000
SAUS46 KMFR 171654
MTRSXT
SPECI KSXT 171652Z AUTO 18014KT 1/4SM -RA FG OVC003 03/03 A2978 RMK
AO2 UPB42E46RAB46 P0000





000
SAUS46 KMFR 171649
MTRSXT
SPECI KSXT 171648Z AUTO 19012G19KT 1SM -RA BR OVC003 03/03 A2978 RMK
AO2 UPB42E46RAB46 P0000 T00280028





000
SAUS46 KMFR 171629
MTRSXT
SPECI KSXT 171628Z AUTO 18013G19KT 3SM BR OVC003 03/03 A2978 RMK AO2
T00280028





000
SAUS46 KMFR 171627
MTRSXT
SPECI KSXT 171626Z AUTO 18013G17KT 1SM BR OVC003 03/03 A2978 RMK AO2
T00280028





000
SAUS46 KMFR 171600
MTRMHS
METAR KMHS 171556Z AUTO 00000KT 10SM FEW021 SCT039 OVC055 03/02
A2989 RMK AO2 RAE18B44E51 SLP148 P0000 T00330017





000
SAUS46 KMFR 171600
MTRMHS
METAR KMHS 171556Z AUTO 00000KT 10SM FEW021 SCT039 OVC055 03/02
A2989 RMK AO2 RAE18B44E51 SLP148 P0000 T00330017





000
SAUS46 KMFR 171557
MTRSXT
METAR KSXT 171556Z AUTO 18012G19KT 1/4SM FG VV002 03/03 A2977 RMK
AO2 UPB35E48SNB13E23 SLP089 P0001 T00280028





000
SAUS46 KMFR 171457
MTRSXT
METAR KSXT 171456Z AUTO 16013KT 1/4SM FG VV004 02/02 A2975 RMK AO2
UPE04 SLP084 P0001 60002 T00220017 52011





000
SAUS46 KMFR 171447
MTRSXT
SPECI KSXT 171446Z AUTO 16012KT 1/4SM FG VV003 02/02 A2975 RMK AO2
UPE04 P0001 T00220017





000
SAUS46 KMFR 171439
MTRSXT
SPECI KSXT 171438Z AUTO 16013KT 1/4SM FG BKN006 OVC011 02/02 A2975
RMK AO2 UPE04 P0001 T00170017





000
SAUS46 KMFR 171433
MTRSXT
SPECI KSXT 171432Z AUTO 16012KT 1 1/4SM BR FEW003 OVC009 02/02 A2975
RMK AO2 UPE04 P0001 T00170017





000
SAUS46 KMFR 171426
MTRSXT
SPECI KSXT 171424Z AUTO 16012KT 6SM BR FEW006 BKN011 OVC022 02/01
A2975 RMK AO2 UPE04 P0000 T00220011





000
SAUS46 KMFR 171357
MTRSXT
METAR KSXT 171356Z AUTO 17010KT 5SM UP BR BKN016 OVC023 02/01 A2974
RMK AO2 RAB11E33UPB33 SLP082 P0001 T00220011





000
SAUS46 KMFR 171336
MTRMHS
SPECI KMHS 171332Z AUTO 00000KT 10SM -RA SCT025 OVC031 03/02 A2985
RMK AO2 UPB19E28RAB30 P0000 T00330017





000
SAUS46 KMFR 171257
MTRSXT
METAR KSXT 171256Z AUTO 14010G17KT 10SM BKN026 OVC032 03/00 A2973
RMK AO2 SLP076 T00330000





000
SAUS46 KMFR 171214
MTRSXT
SPECI KSXT 171213Z AUTO 13009KT 10SM BKN029 OVC037 03/00 A2972 RMK
AO2 T00330000





000
SAUS46 KMFR 171157
MTRSXT
METAR KSXT 171156Z AUTO 15011KT 10SM BKN032 OVC040 03/00 A2972 RMK
AO2 SLP071 T00330000 10039 20028 51006





000
SAUS46 KMFR 171057
MTRSXT
METAR KSXT 171056Z AUTO 13010KT 10SM BKN035 OVC049 03/00 A2971 RMK
AO2 SLP068 T00330000





000
SAUS46 KMFR 170957
MTRSXT
METAR KSXT 170956Z AUTO 13011G19KT 10SM OVC040 03/00 A2971 RMK AO2
SLP066 T00330000





000
SAUS46 KMFR 170857
MTRSXT
METAR KSXT 170856Z AUTO 12010G18KT 10SM OVC040 03/01 A2970 RMK AO2
SLP062 T00330006 56001





000
SAUS46 KMFR 170857
MTRSXT
METAR KSXT 170856Z AUTO 12010G18KT 10SM OVC040 03/01 A2970 RMK AO2
SLP062 T00330006 56001





000
SAUS46 KMFR 170757
MTRSXT
METAR KSXT 170756Z AUTO 12009G18KT 10SM SCT043 03/00 A2970 RMK AO2
SLP066 T00280000 400440006





000
SAUS46 KMFR 170757
MTRSXT
METAR KSXT 170756Z AUTO 12009G18KT 10SM SCT043 03/00 A2970 RMK AO2
SLP066 T00280000 400440006





000
SAUS46 KMFR 170657
MTRSXT
METAR KSXT 170656Z AUTO 12011G21KT 10SM BKN047 03/01 A2969 RMK AO2
SLP062 T00330006





000
SAUS46 KMFR 170557
MTRSXT
METAR KSXT 170556Z AUTO 11012G20KT 10SM BKN047 03/01 A2970 RMK AO2
SLP068 T00330006 10039 20028 51016





000
SAUS46 KMFR 170457
MTRSXT
METAR KSXT 170456Z AUTO 12010G20KT 10SM BKN046 OVC060 03/01 A2970
RMK AO2 SLP067 T00330006





000
SAUS46 KMFR 170457
MTRSXT
METAR KSXT 170456Z AUTO 12010G20KT 10SM BKN046 OVC060 03/01 A2970
RMK AO2 SLP067 T00330006





000
SAUS46 KMFR 170431 COR
MTRMHS
SPECI KMHS 170426Z AUTO VRB04KT 7SM RA SCT007 BKN012 OVC018 03/02
A2978 RMK AO2 P0005 T00330022





000
SAUS46 KMFR 170400
MTRMHS
METAR KMHS 170356Z AUTO 5SM RA BR FEW009 BKN014 OVC019 04/03 A2978
RMK AO2 SLP108 P0012 T00390028





000
SAUS46 KMFR 170400
MTRMHS
METAR KMHS 170356Z AUTO 5SM RA BR FEW009 BKN014 OVC019 04/03 A2978
RMK AO2 SLP108 P0012 T00390028





000
SAUS46 KMFR 170357
MTRSXT
METAR KSXT 170356Z AUTO 12011G23KT 080V150 10SM BKN055 BKN085 04/00
A2968 RMK AO2 PK WND 12026/0322 SLP061 T00390000





000
SAUS46 KMFR 170357
MTRSXT
METAR KSXT 170356Z AUTO 12011G23KT 080V150 10SM BKN055 BKN085 04/00
A2968 RMK AO2 PK WND 12026/0322 SLP061 T00390000





000
SAUS46 KMFR 170257
MTRSXT
METAR KSXT 170256Z AUTO 13014G23KT 10SM FEW050 FEW080 04/00 A2965
RMK AO2 PK WND 12030/0244 SLP047 T00390000 56004





000
SAUS46 KMFR 170157
MTRSXT
METAR KSXT 170156Z AUTO 11010G18KT 030V160 10SM FEW070 FEW085 SCT110
03/01 A2965 RMK AO2 SLP053 T00280006





000
SAUS46 KMFR 170058
MTRSXT
METAR KSXT 170056Z AUTO 10009G26KT 060V130 10SM OVC050 03/01 A2965
RMK AO2 PK WND 13026/0053 SLP051 T00330006





000
SAUS46 KMFR 162357
MTRSXT
METAR KSXT 162356Z AUTO 12013G22KT 10SM FEW060 BKN080 OVC100 03/01
A2966 RMK AO2 SLP054 T00330011 10044 20022 56008





000
SAUS46 KMFR 162257
MTRSXT
METAR KSXT 162256Z AUTO 13016G25KT 10SM FEW090 SCT110 04/01 A2967
RMK AO2 SLP056 T00390006





000
SAUS46 KMFR 162157
MTRSXT
METAR KSXT 162156Z AUTO 12011G19KT 10SM FEW110 04/02 A2967 RMK AO2
SLP059 T00440017





000
SAUS46 KMFR 162057
MTRSXT
METAR KSXT 162056Z AUTO 12009KT 10SM BKN110 04/01 A2969 RMK AO2
SLP064 T00390011 58019





000
SAUS46 KMFR 161957
MTRSXT
METAR KSXT 161956Z AUTO 12010G18KT 10SM FEW120 03/01 A2971 RMK AO2
SLP072 T00330011





000
SAUS46 KMFR 161857
MTRSXT
METAR KSXT 161856Z AUTO 12009G17KT 10SM CLR 03/ A2974 RMK AO2 SLP081
T0033 $





000
SAUS46 KMFR 161757
MTRSXT
METAR KSXT 161756Z AUTO 12009KT 10SM FEW035 02/01 A2975 RMK AO2
SLP088 60000 T00220006 10022 20006 55001





000
SAUS46 KMFR 161700
MTRMHS
METAR KMHS 161656Z AUTO 00000KT 7SM -RA BKN025 OVC033 03/02 A2986
RMK AO2 RAB13 SLP141 P0002 T00280017





000
SAUS46 KMFR 161657
MTRSXT
METAR KSXT 161656Z AUTO 12010KT 10SM CLR 02/01 A2975 RMK AO2 SLP089
T00170006





000
SAUS46 KMFR 161557
MTRSXT
METAR KSXT 161556Z AUTO 13010KT 10SM CLR 01/00 A2975 RMK AO2 SLP091
T00060000





000
SAUS46 KMFR 161557
MTRSXT
METAR KSXT 161556Z AUTO 13010KT 10SM CLR 01/00 A2975 RMK AO2 SLP091
T00060000





000
SAUS46 KMFR 161517
MTRSXT
SPECI KSXT 161516Z AUTO 14013KT 10SM SCT025 01/M01 A2975 RMK AO2
T00111006





000
SAUS46 KMFR 161457
MTRSXT
METAR KSXT 161456Z AUTO 16013KT 10SM OVC025 02/00 A2976 RMK AO2
SLP088 60000 T00220000 55000





000
SAUS46 KMFR 161419
MTRSXT
SPECI KSXT 161418Z AUTO 14011KT 10SM OVC028 02/00 A2976 RMK AO2
T00170000





000
SAUS46 KMFR 161357
MTRSXT
METAR KSXT 161356Z AUTO 15012KT 10SM SCT026 OVC032 02/00 A2975 RMK
AO2 SLP088 T00170000





000
SAUS46 KMFR 161333
MTRSXT
SPECI KSXT 161331Z AUTO 14007KT 10SM BKN024 BKN029 OVC033 02/00
A2976 RMK AO2 T00170000





000
SAUS46 KMFR 161316
MTRSXT
SPECI KSXT 161314Z AUTO 14009KT 10SM SCT023 BKN035 02/00 A2976 RMK
AO2 T00170000





000
SAUS46 KMFR 161258
MTRSXT
METAR KSXT 161256Z AUTO 15009KT 10SM BKN023 OVC100 02/00 A2976 RMK
AO2 UPE00 SLP087 P0000 T00220000





000
SAUS46 KMFR 161253
MTRSXT
SPECI KSXT 161252Z AUTO 15010KT 10SM BKN023 OVC100 02/01 A2976 RMK
AO2 UPE00 P0000





000
SAUS46 KMFR 161240
MTRSXT
SPECI KSXT 161239Z AUTO 16012KT 10SM SCT021 BKN100 02/01 A2976 RMK
AO2 UPE00 P0000 T00170006





000
SAUS46 KMFR 161157
MTRSXT
METAR KSXT 161156Z AUTO 15011KT 10SM UP BKN020 OVC026 02/01 A2977
RMK AO2 UPB50 SLP092 P0000 60000 70005 T00170006 10022 20011 53002





000
SAUS46 KMFR 161057
MTRSXT
METAR KSXT 161056Z AUTO 15010KT 10SM BKN024 BKN030 BKN035 02/01
A2977 RMK AO2 UPB44E53 SLP090 P0000 T00170006





000
SAUS46 KMFR 161032
MTRSXT
SPECI KSXT 161031Z AUTO 16011KT 10SM BKN025 BKN033 01/01 A2976 RMK
AO2 T00110006





000
SAUS46 KMFR 161011
MTRSXT
SPECI KSXT 161010Z AUTO 16011KT 10SM FEW018 SCT028 SCT035 01/01
A2976 RMK AO2 T00110006





000
SAUS46 KMFR 161011
MTRSXT
SPECI KSXT 161010Z AUTO 16011KT 10SM FEW018 SCT028 SCT035 01/01
A2976 RMK AO2 T00110006





000
SAUS46 KMFR 161007
MTRMHS
SPECI KMHS 161003Z AUTO 00000KT 5SM BR FEW002 BKN016 OVC030 01/00
A2986 RMK AO2 T00110000





000
SAUS46 KMFR 161007
MTRMHS
SPECI KMHS 161003Z AUTO 00000KT 5SM BR FEW002 BKN016 OVC030 01/00
A2986 RMK AO2 T00110000





000
SAUS46 KMFR 160957
MTRSXT
METAR KSXT 160956Z AUTO 16011KT 10SM FEW018 BKN028 OVC035 01/01
A2976 RMK AO2 SLP088 T00110006





000
SAUS46 KMFR 160901
MTRMHS
METAR KMHS 160856Z AUTO 00000KT 2SM UP BR OVC023 01/00 A2985 RMK AO2
UPE0758B11 SLP139 P0001 60001 T00110000 57005





000
SAUS46 KMFR 160857
MTRSXT
METAR KSXT 160856Z AUTO 14009KT 10SM BKN017 OVC023 02/01 A2976 RMK
AO2 SLP089 T00170011 58001





000
SAUS46 KMFR 160809
MTRMHS
SPECI KMHS 160805Z AUTO 00000KT 6SM BR FEW007 OVC028 01/00 A2986 RMK
AO2 UPE0758 P0000 T00110000





000
SAUS46 KMFR 160757
MTRSXT
METAR KSXT 160756Z AUTO 14010KT 10SM OVC022 02/01 A2977 RMK AO2
SLP090 T00170011 400440011





000
SAUS46 KMFR 160743
MTRMHS
SPECI KMHS 160739Z AUTO 00000KT 10SM UP FEW004 BKN028 OVC049 01/00
A2987 RMK AO2 UPB31 P0000 T00110000





000
SAUS46 KMFR 160657
MTRSXT
METAR KSXT 160656Z AUTO 13011KT 10SM OVC019 02/01 A2977 RMK AO2
SLP091 T00170011





000
SAUS46 KMFR 160557
MTRSXT
METAR KSXT 160556Z AUTO 13009KT 5SM BR FEW001 OVC016 02/02 A2977 RMK
AO2 SLP092 60003 T00170017 10033 20017 53001





000
SAUS46 KMFR 160552
MTRSXT
SPECI KSXT 160551Z AUTO 13009KT 2SM BR SCT001 OVC016 02/02 A2976 RMK
AO2 VIS 3/4V5





000
SAUS46 KMFR 160546
MTRSXT
SPECI KSXT 160545Z AUTO 13010KT 1/2SM FG SCT001 OVC018 02/02 A2976
RMK AO2 T00170017





000
SAUS46 KMFR 160543
MTRSXT
SPECI KSXT 160542Z AUTO 13010KT 1/4SM FG BKN001 OVC018 02/02 A2976
RMK AO2 T00170017





000
SAUS46 KMFR 160529
MTRSXT
SPECI KSXT 160528Z AUTO 13011G16KT 1/4SM FG SCT002 OVC015 02/02
A2976 RMK AO2 T00170017





000
SAUS46 KMFR 160522
MTRSXT
SPECI KSXT 160520Z AUTO 13010KT 1 1/4SM BR FEW002 OVC016 02/02 A2976
RMK AO2 T00170017





000
SAUS46 KMFR 160517
MTRSXT
SPECI KSXT 160516Z AUTO 13010G16KT 5SM BR FEW002 OVC016 02/02 A2976
RMK AO2 T00170017





000
SAUS46 KMFR 160510
MTRSXT
SPECI KSXT 160509Z AUTO 13009G15KT 3SM BR OVC014 02/02 A2976 RMK AO2
T00170017





000
SAUS46 KMFR 160504
MTRSXT
SPECI KSXT 160503Z AUTO 13009KT 1 3/4SM BR FEW010 OVC014 02/02 A2976
RMK AO2 VIS 1/2V5 T00170017





000
SAUS46 KMFR 160457
MTRSXT
METAR KSXT 160456Z AUTO 14011KT 1/2SM FG OVC014 02/02 A2976 RMK AO2
UPE08 SLP092 P0000 T00170017





000
SAUS46 KMFR 160457
MTRSXT
METAR KSXT 160456Z AUTO 14011KT 1/2SM FG OVC014 02/02 A2976 RMK AO2
UPE08 SLP092 P0000 T00170017





000
SAUS46 KMFR 160452
MTRSXT
SPECI KSXT 160451Z AUTO 13011KT 1/2SM FG OVC014 02/02 A2976 RMK AO2
UPE08 P0000





000
SAUS46 KMFR 160443
MTRSXT
SPECI KSXT 160442Z AUTO 14011KT 1SM BR BKN014 OVC019 02/02 A2976 RMK
AO2 VIS 1/2V2 1/2 UPE08 P0000 T00170017





000
SAUS46 KMFR 160441
MTRSXT
SPECI KSXT 160440Z AUTO 14010KT 1 1/2SM BR OVC016 02/02 A2976 RMK
AO2 VIS 3/4V5 UPE08 P0000 T00170017





000
SAUS46 KMFR 160436
MTRSXT
SPECI KSXT 160435Z AUTO 14010KT 2 1/2SM BR BKN014 OVC020 02/02 A2976
RMK AO2 UPE08 P0000 T00170017





000
SAUS46 KMFR 160429
MTRSXT
SPECI KSXT 160428Z AUTO 14010KT 5SM BR BKN018 OVC024 02/02 A2976 RMK
AO2 UPE08 P0000 T00170017





000
SAUS46 KMFR 160409
MTRSXT
SPECI KSXT 160408Z AUTO 14010KT 2SM BR FEW009 BKN022 OVC031 02/02
A2976 RMK AO2 VIS 1V4 UPE08 P0000 T00170017





000
SAUS46 KMFR 160409
MTRSXT
SPECI KSXT 160408Z AUTO 14010KT 2SM BR FEW009 BKN022 OVC031 02/02
A2976 RMK AO2 VIS 1V4 UPE08 P0000 T00170017





000
SAUS46 KMFR 160358
MTRSXT
METAR KSXT 160356Z AUTO 13009KT 2SM UP BR SCT011 OVC032 02/02 A2976
RMK AO2 VIS 1 1/4V5 SLP093 P0002 T00170017





000
SAUS46 KMFR 160358
MTRSXT
METAR KSXT 160356Z AUTO 13009KT 2SM UP BR SCT011 OVC032 02/02 A2976
RMK AO2 VIS 1 1/4V5 SLP093 P0002 T00170017





000
SAUS46 KMFR 160353
MTRSXT
SPECI KSXT 160352Z AUTO 13009KT 3SM UP BR SCT011 OVC032 02/02 A2976
RMK AO2 P0002





000
SAUS46 KMFR 160353
MTRSXT
SPECI KSXT 160352Z AUTO 13009KT 3SM UP BR SCT011 OVC032 02/02 A2976
RMK AO2 P0002





000
SAUS46 KMFR 160328
MTRSXT
SPECI KSXT 160326Z AUTO 15011KT 3SM UP BR SCT013 OVC026 02/02 A2976
RMK AO2 P0001 T00170017





000
SAUS46 KMFR 160328
MTRSXT
SPECI KSXT 160326Z AUTO 15011KT 3SM UP BR SCT013 OVC026 02/02 A2976
RMK AO2 P0001 T00170017





000
SAUS46 KMFR 160324
MTRSXT
SPECI KSXT 160322Z AUTO 15010KT 1 1/2SM UP BR SCT013 OVC026 02/02
A2976 RMK AO2 P0001 T00170017





000
SAUS46 KMFR 160316
MTRSXT
SPECI KSXT 160315Z AUTO 16011KT 3/4SM UP BR SCT013 OVC025 02/02
A2976 RMK AO2 P0001 T00170017





000
SAUS46 KMFR 160311
MTRSXT
SPECI KSXT 160310Z AUTO 16010KT 1 1/4SM UP BR BKN013 OVC025 02/02
A2976 RMK AO2 VIS 1/4V5 P0001 T00170017





000
SAUS46 KMFR 160309
MTRSXT
SPECI KSXT 160308Z AUTO 16011KT 2SM UP BR BKN013 OVC025 02/02 A2976
RMK AO2 VIS 3/4V5 P0001 T00170017





000
SAUS46 KMFR 160257
MTRSXT
METAR KSXT 160256Z AUTO 16012KT 1/2SM UP FG SCT013 OVC020 02/02
A2976 RMK AO2 SLP092 P0001 60001 T00170017 51005





000
SAUS46 KMFR 160249
MTRSXT
SPECI KSXT 160247Z AUTO 16011KT 1/4SM UP FG OVC013 02/02 A2976 RMK
AO2 P0001 T00170017





000
SAUS46 KMFR 160239
MTRSXT
SPECI KSXT 160237Z AUTO 16011KT 1/4SM UP FG OVC016 02/02 A2976 RMK
AO2 P0001 T00170017





000
SAUS46 KMFR 160239
MTRSXT
SPECI KSXT 160237Z AUTO 16011KT 1/4SM UP FG OVC016 02/02 A2976 RMK
AO2 P0001 T00170017





000
SAUS46 KMFR 160227
MTRSXT
SPECI KSXT 160226Z AUTO 16010KT 3/4SM UP BR OVC014 02/02 A2976 RMK
AO2 VIS M1/4V5 P0000 T00220017





000
SAUS46 KMFR 160157
MTRSXT
METAR KSXT 160156Z AUTO 15011KT 9SM UP OVC014 02/02 A2976 RMK AO2
UPB20 SLP089 P0000 T00220017





000
SAUS46 KMFR 160117
MTRSXT
SPECI KSXT 160116Z AUTO 13009G16KT 10SM SCT019 BKN024 OVC029 03/01
A2976 RMK AO2 T00280011





000
SAUS46 KMFR 160057
MTRSXT
METAR KSXT 160056Z AUTO 14011G18KT 10SM SCT023 OVC037 03/01 A2975
RMK AO2 SLP086 T00280011





000
SAUS46 KMFR 152357
MTRSXT
METAR KSXT 152356Z AUTO 12010G16KT 10SM OVC032 03/01 A2974 RMK AO2
SLP082 T00280011 10044 20028 55006





000
SAUS46 KMFR 152257
MTRSXT
METAR KSXT 152256Z AUTO 13010KT 10SM OVC036 04/01 A2974 RMK AO2
SLP079 T00390011





000
SAUS46 KMFR 152157
MTRSXT
METAR KSXT 152156Z AUTO 13011KT 10SM SCT110 04/01 A2975 RMK AO2
SLP085 T00390006





000
SAUS46 KMFR 152157
MTRSXT
METAR KSXT 152156Z AUTO 13011KT 10SM SCT110 04/01 A2975 RMK AO2
SLP085 T00390006





000
SAUS46 KMFR 152057
MTRSXT
METAR KSXT 152056Z AUTO 12012G18KT 10SM BKN039 OVC055 04/01 A2976
RMK AO2 SLP089 T00390006 58013





000
SAUS46 KMFR 152057
MTRMHS
METAR KMHS 152056Z AUTO 00000KT 7SM UP SCT005 BKN030 OVC039 03/01
A2987 RMK AO2 UPB48 SLP143 P0000 60001 T00280011 58018





000
SAUS46 KMFR 151957
MTRSXT
METAR KSXT 151956Z AUTO 11008G21KT 10SM BKN043 OVC055 04/01 A2978
RMK AO2 PK WND 14027/1930 SLP096 T00390006





000
SAUS46 KMFR 151857
MTRSXT
METAR KSXT 151856Z AUTO 12013G22KT 10SM BKN041 03/00 A2979 RMK AO2
SLP100 T00330000





000
SAUS46 KMFR 151757
MTRSXT
METAR KSXT 151756Z AUTO 11010G27KT 10SM BKN040 BKN050 OVC090 02/01
A2980 RMK AO2 PK WND 12027/1750 SLP105 60002 T00220006 10022 20011
53006





000
SAUS46 KMFR 151657
MTRSXT
METAR KSXT 151656Z AUTO 12012G21KT 10SM OVC041 02/01 A2979 RMK AO2
SLP104 T00170006





000
SAUS46 KMFR 151557
MTRSXT
METAR KSXT 151556Z AUTO 12013G26KT 10SM BKN037 02/M01 A2978 RMK AO2
PK WND 13028/1538 SLP100 T00171006





000
SAUS46 KMFR 151535
MTRMHS
SPECI KMHS 151531Z AUTO 00000KT 8SM UP FEW004 FEW008 OVC025 02/01
A2993 RMK AO2 RAB05E08 P0001 T00220011





000
SAUS46 KMFR 151457
MTRSXT
METAR KSXT 151456Z AUTO 12015G25KT 10SM BKN034 02/00 A2978 RMK AO2
PK WND 13027/1436 SLP100 60002 T00170000 58009





000
SAUS46 KMFR 151357
MTRSXT
METAR KSXT 151356Z AUTO 12015G22KT 10SM FEW026 OVC034 02/01 A2979
RMK AO2 UPB1258E21SNE1258 SLP104 P0001 T00170006





000
SAUS46 KMFR 151352
MTRMHS
SPECI KMHS 151348Z AUTO 00000KT 10SM BKN003 BKN023 OVC036 02/01
A2992 RMK AO2 UPE38 P0000 T00220011





000
SAUS46 KMFR 151337
MTRSXT
SPECI KSXT 151336Z AUTO 12013KT 10SM FEW026 OVC034 01/01 A2980 RMK
AO2 UPB1258E21SNE1258 P0001 T00110006 $





000
SAUS46 KMFR 151329
MTRMHS
SPECI KMHS 151325Z AUTO 00000KT 10SM UP FEW003 SCT028 OVC037 02/01
A2992 RMK AO2 P0000 T00220011





000
SAUS46 KMFR 151300
MTRMHS
METAR KMHS 151256Z AUTO 00000KT 10SM UP FEW026 BKN031 OVC038 02/01
A2993 RMK AO2 UPE21B34RAB21E34 SLP165 P0001 T00220011





000
SAUS46 KMFR 151257
MTRSXT
METAR KSXT 151256Z AUTO 12011G19KT 6SM -SN BR OVC019 01/01 A2982 RMK
AO2 SNB39 SLP115 P0001 T00110006 $





000
SAUS46 KMFR 151210
MTRSXT
SPECI KSXT 151209Z AUTO 12010G18KT 10SM BKN028 OVC041 02/00 A2982
RMK AO2 T00170000 $





000
SAUS46 KMFR 151157
MTRSXT
METAR KSXT 151156Z AUTO 12013G21KT 10SM SCT027 OVC041 02/M01 A2981
RMK AO2 SLP109 60000 70002 T00221006 10022 20017 55007 $





000
SAUS46 KMFR 151155
MTRSXT
SPECI KSXT 151154Z AUTO 12013G21KT 10SM SCT027 OVC039 02/M01 A2981
RMK AO2 $





000
SAUS46 KMFR 151057
MTRSXT
METAR KSXT 151056Z AUTO 12014G23KT 10SM OVC025 02/M01 A2982 RMK AO2
PK WND 13026/1004 SLP112 T00221006 $





000
SAUS46 KMFR 150957
MTRSXT
METAR KSXT 150956Z AUTO 12013G22KT 10SM OVC025 02/00 A2984 RMK AO2
UPB02E19SNB01E02 SLP117 P0000 T00170000 $





000
SAUS46 KMFR 150931
MTRSXT
SPECI KSXT 150930Z AUTO 12013KT 10SM BKN026 OVC033 02/01 A2984 RMK
AO2 UPB02E19SNB01E02 P0000 T00170006 $





000
SAUS46 KMFR 150922
MTRMHS
SPECI KMHS 150918Z AUTO 00000KT 10SM UP OVC029 02/01 A2997 RMK AO2
P0000 T00220006





000
SAUS46 KMFR 150857
MTRSXT
METAR KSXT 150856Z AUTO 13014G20KT 9SM SCT023 OVC030 02/01 A2985 RMK
AO2 UPB25E48 SLP123 P0000 60000 T00170006 58002 $





000
SAUS46 KMFR 150757
MTRSXT
METAR KSXT 150756Z AUTO 13015G21KT 10SM OVC021 02/01 A2985 RMK AO2
UPE04B33E56 SLP122 P0000 T00170006 400221006 $





000
SAUS46 KMFR 150657
MTRSXT
METAR KSXT 150656Z AUTO 13012G18KT 9SM UP OVC024 02/01 A2986 RMK AO2
UPB51 SLP128 P0000 T00170006 $





000
SAUS46 KMFR 150558
MTRSXT
METAR KSXT 150556Z AUTO 13013G19KT 10SM OVC024 02/01 A2985 RMK AO2
UPE00 SLP127 P0000 60002 I6000 T00170006 10022 20006 53003 $





000
SAUS46 KMFR 150515
MTRSXT
SPECI KSXT 150514Z AUTO 12015G23KT 10SM BKN021 OVC026 02/01 A2985
RMK AO2 UPE00 P0000 T00170006 $





000
SAUS46 KMFR 150508
MTRSXT
SPECI KSXT 150506Z AUTO 13014G22KT 10SM SCT021 OVC031 02/01 A2985
RMK AO2 UPE00 P0000 T00170006 $





000
SAUS46 KMFR 150458
MTRSXT
METAR KSXT 150456Z AUTO 13015G21KT 10SM UP SCT021 BKN026 OVC035
01/01 A2985 RMK AO2 UPB51 SLP128 P0000 T00110006 $





    US Dept of Commerce
    National Oceanic and Atmospheric Administration
    National Weather Service
    1325 East West Highway
    Silver Spring, MD 20910
    Page Author: NWS Internet Services Team
Disclaimer
Information Quality
Credits
Glossary
Privacy Policy
Freedom of Information Act (FOIA)
About Us
Career Opportunities